sensor_id;sensor_type;location;lat;lon;timestamp;temperature;humidity
12119;DHT22;6123;48.864;9.200;2022-10-16T00:02:04;16.40;99.90
12119;DHT22;6123;48.864;9.200;2022-10-16T00:04:30;16.30;99.90
12119;DHT22;6123;48.864;9.200;2022-10-16T00:06:56;16.30;99.90
12119;DHT22;6123;48.864;9.200;2022-10-16T00:09:21;16.30;99.90
12119;DHT22;6123;48.864;9.200;2022-10-16T00:11:47;16.30;99.90
12119;DHT22;6123;48.864;9.200;2022-10-16T00:14:14;16.30;99.90
12119;DHT22;6123;48.864;9.200;2022-10-16T00:16:40;16.40;99.90
12119;DHT22;6123;48.864;9.200;2022-10-16T00:19:06;16.40;99.90
12119;DHT22;6123;48.864;9.200;2022-10-16T00:21:32;16.30;99.90
12119;DHT22;6123;48.864;9.200;2022-10-16T00:24:04;16.30;99.90
12119;DHT22;6123;48.864;9.200;2022-10-16T00:26:31;16.20;99.90
12119;DHT22;6123;48.864;9.200;2022-10-16T00:28:57;16.30;99.90
12119;DHT22;6123;48.864;9.200;2022-10-16T00:31:24;16.10;99.90
12119;DHT22;6123;48.864;9.200;2022-10-16T00:33:50;16.10;99.90
12119;DHT22;6123;48.864;9.200;2022-10-16T00:36:18;16.20;99.90
12119;DHT22;6123;48.864;9.200;2022-10-16T00:38:44;16.30;99.90
12119;DHT22;6123;48.864;9.200;2022-10-16T00:41:13;16.30;99.90
12119;DHT22;6123;48.864;9.200;2022-10-16T00:46:20;16.20;99.90
12119;DHT22;6123;48.864;9.200;2022-10-16T00:49:09;16.10;99.90
12119;DHT22;6123;48.864;9.200;2022-10-16T00:51:41;16.00;99.90
12119;DHT22;6123;48.864;9.200;2022-10-16T00:54:14;16.10;99.90
12119;DHT22;6123;48.864;9.200;2022-10-16T00:56:43;16.10;99.90
12119;DHT22;6123;48.864;9.200;2022-10-16T00:59:22;15.90;99.90
12119;DHT22;6123;48.864;9.200;2022-10-16T01:01:50;15.90;99.90
12119;DHT22;6123;48.864;9.200;2022-10-16T01:04:15;15.80;99.90
12119;DHT22;6123;48.864;9.200;2022-10-16T01:07:03;15.70;99.90
12119;DHT22;6123;48.864;9.200;2022-10-16T01:09:42;15.70;99.90
12119;DHT22;6123;48.864;9.200;2022-10-16T01:17:45;16.20;99.90
12119;DHT22;6123;48.864;9.200;2022-10-16T01:23:10;16.10;99.90
12119;DHT22;6123;48.864;9.200;2022-10-16T01:28:24;15.90;99.90
12119;DHT22;6123;48.864;9.200;2022-10-16T01:30:58;16.00;99.90
12119;DHT22;6123;48.864;9.200;2022-10-16T01:33:38;16.10;99.90
12119;DHT22;6123;48.864;9.200;2022-10-16T01:36:13;16.10;99.90
12119;DHT22;6123;48.864;9.200;2022-10-16T01:38:41;16.00;99.90
12119;DHT22;6123;48.864;9.200;2022-10-16T01:41:21;16.00;99.90
12119;DHT22;6123;48.864;9.200;2022-10-16T01:43:57;16.10;99.90
12119;DHT22;6123;48.864;9.200;2022-10-16T01:46:24;16.10;99.90
12119;DHT22;6123;48.864;9.200;2022-10-16T01:48:52;16.00;99.90
12119;DHT22;6123;48.864;9.200;2022-10-16T01:51:19;16.00;99.90
12119;DHT22;6123;48.864;9.200;2022-10-16T01:53:50;15.90;99.90
12119;DHT22;6123;48.864;9.200;2022-10-16T01:56:18;16.00;99.90
12119;DHT22;6123;48.864;9.200;2022-10-16T01:58:57;16.00;99.90
12119;DHT22;6123;48.864;9.200;2022-10-16T02:01:26;16.00;99.90
12119;DHT22;6123;48.864;9.200;2022-10-16T02:04:00;15.90;99.90
12119;DHT22;6123;48.864;9.200;2022-10-16T02:06:27;16.00;99.90
12119;DHT22;6123;48.864;9.200;2022-10-16T02:08:53;15.90;99.90
12119;DHT22;6123;48.864;9.200;2022-10-16T02:11:19;16.00;99.90
12119;DHT22;6123;48.864;9.200;2022-10-16T02:14:11;16.00;99.90
12119;DHT22;6123;48.864;9.200;2022-10-16T02:16:42;16.00;99.90
12119;DHT22;6123;48.864;9.200;2022-10-16T02:19:09;16.00;99.90
12119;DHT22;6123;48.864;9.200;2022-10-16T02:24:36;16.10;99.90
12119;DHT22;6123;48.864;9.200;2022-10-16T02:27:10;16.20;99.90
12119;DHT22;6123;48.864;9.200;2022-10-16T02:29:47;16.10;99.90
12119;DHT22;6123;48.864;9.200;2022-10-16T02:32:18;16.20;99.90
12119;DHT22;6123;48.864;9.200;2022-10-16T02:34:47;16.10;99.90
12119;DHT22;6123;48.864;9.200;2022-10-16T02:37:13;16.10;99.90
12119;DHT22;6123;48.864;9.200;2022-10-16T02:39:41;16.00;99.90
12119;DHT22;6123;48.864;9.200;2022-10-16T02:42:12;16.00;99.90
12119;DHT22;6123;48.864;9.200;2022-10-16T02:44:38;16.00;99.90
12119;DHT22;6123;48.864;9.200;2022-10-16T02:47:04;16.10;99.90
12119;DHT22;6123;48.864;9.200;2022-10-16T02:49:29;16.10;99.90
12119;DHT22;6123;48.864;9.200;2022-10-16T02:51:55;16.00;99.90
12119;DHT22;6123;48.864;9.200;2022-10-16T02:54:20;15.90;99.90
12119;DHT22;6123;48.864;9.200;2022-10-16T02:56:46;15.80;99.90
12119;DHT22;6123;48.864;9.200;2022-10-16T02:59:12;15.80;99.90
12119;DHT22;6123;48.864;9.200;2022-10-16T03:01:37;15.80;99.90
12119;DHT22;6123;48.864;9.200;2022-10-16T03:04:03;15.90;99.90
12119;DHT22;6123;48.864;9.200;2022-10-16T03:06:29;16.00;99.90
12119;DHT22;6123;48.864;9.200;2022-10-16T03:08:54;15.90;99.90
12119;DHT22;6123;48.864;9.200;2022-10-16T03:11:20;16.00;99.90
12119;DHT22;6123;48.864;9.200;2022-10-16T03:13:48;16.00;99.90
12119;DHT22;6123;48.864;9.200;2022-10-16T03:16:13;15.80;99.90
12119;DHT22;6123;48.864;9.200;2022-10-16T03:18:39;15.80;99.90
12119;DHT22;6123;48.864;9.200;2022-10-16T03:21:07;15.70;99.90
12119;DHT22;6123;48.864;9.200;2022-10-16T03:23:32;15.70;99.90
12119;DHT22;6123;48.864;9.200;2022-10-16T03:25:58;15.80;99.90
12119;DHT22;6123;48.864;9.200;2022-10-16T03:28:24;15.80;99.90
12119;DHT22;6123;48.864;9.200;2022-10-16T03:30:49;15.70;99.90
12119;DHT22;6123;48.864;9.200;2022-10-16T03:33:17;15.70;99.90
12119;DHT22;6123;48.864;9.200;2022-10-16T03:35:43;15.80;99.90
12119;DHT22;6123;48.864;9.200;2022-10-16T03:38:16;15.90;99.90
12119;DHT22;6123;48.864;9.200;2022-10-16T03:40:41;15.90;99.90
12119;DHT22;6123;48.864;9.200;2022-10-16T03:43:07;15.80;99.90
12119;DHT22;6123;48.864;9.200;2022-10-16T03:45:32;15.70;99.90
12119;DHT22;6123;48.864;9.200;2022-10-16T03:47:58;15.60;99.90
12119;DHT22;6123;48.864;9.200;2022-10-16T03:50:23;15.60;99.90
12119;DHT22;6123;48.864;9.200;2022-10-16T03:52:49;15.70;99.90
12119;DHT22;6123;48.864;9.200;2022-10-16T03:55:15;15.70;99.90
12119;DHT22;6123;48.864;9.200;2022-10-16T03:57:43;15.70;99.90
12119;DHT22;6123;48.864;9.200;2022-10-16T04:00:09;15.90;99.90
12119;DHT22;6123;48.864;9.200;2022-10-16T04:02:35;15.80;99.90
12119;DHT22;6123;48.864;9.200;2022-10-16T04:05:00;15.80;99.90
12119;DHT22;6123;48.864;9.200;2022-10-16T04:07:28;15.70;99.90
12119;DHT22;6123;48.864;9.200;2022-10-16T04:09:54;15.70;99.90
12119;DHT22;6123;48.864;9.200;2022-10-16T04:12:20;15.60;99.90
12119;DHT22;6123;48.864;9.200;2022-10-16T04:14:45;15.60;99.90
12119;DHT22;6123;48.864;9.200;2022-10-16T04:17:11;15.60;99.90
12119;DHT22;6123;48.864;9.200;2022-10-16T04:19:36;15.60;99.90
12119;DHT22;6123;48.864;9.200;2022-10-16T04:22:03;15.50;99.90
12119;DHT22;6123;48.864;9.200;2022-10-16T04:24:29;15.50;99.90
12119;DHT22;6123;48.864;9.200;2022-10-16T04:26:54;15.50;99.90
12119;DHT22;6123;48.864;9.200;2022-10-16T04:29:20;15.60;99.90
12119;DHT22;6123;48.864;9.200;2022-10-16T04:31:46;15.60;99.90
12119;DHT22;6123;48.864;9.200;2022-10-16T04:34:12;15.50;99.90
12119;DHT22;6123;48.864;9.200;2022-10-16T04:36:37;15.60;99.90
12119;DHT22;6123;48.864;9.200;2022-10-16T04:39:03;15.60;99.90
12119;DHT22;6123;48.864;9.200;2022-10-16T04:41:29;15.70;99.90
12119;DHT22;6123;48.864;9.200;2022-10-16T04:43:54;15.70;99.90
12119;DHT22;6123;48.864;9.200;2022-10-16T04:46:20;15.80;99.90
12119;DHT22;6123;48.864;9.200;2022-10-16T04:48:46;15.80;99.90
12119;DHT22;6123;48.864;9.200;2022-10-16T04:51:14;15.70;99.90
12119;DHT22;6123;48.864;9.200;2022-10-16T04:53:40;15.80;99.90
12119;DHT22;6123;48.864;9.200;2022-10-16T04:56:05;15.80;99.90
12119;DHT22;6123;48.864;9.200;2022-10-16T04:58:31;15.80;99.90
12119;DHT22;6123;48.864;9.200;2022-10-16T05:00:59;15.80;99.90
12119;DHT22;6123;48.864;9.200;2022-10-16T05:03:25;15.70;99.90
12119;DHT22;6123;48.864;9.200;2022-10-16T05:05:50;15.70;99.90
12119;DHT22;6123;48.864;9.200;2022-10-16T05:08:16;15.60;99.90
12119;DHT22;6123;48.864;9.200;2022-10-16T05:10:43;15.50;99.90
12119;DHT22;6123;48.864;9.200;2022-10-16T05:13:10;15.50;99.90
12119;DHT22;6123;48.864;9.200;2022-10-16T05:15:38;15.50;99.90
12119;DHT22;6123;48.864;9.200;2022-10-16T05:18:04;15.40;99.90
12119;DHT22;6123;48.864;9.200;2022-10-16T05:20:29;15.40;99.90
12119;DHT22;6123;48.864;9.200;2022-10-16T05:22:55;15.40;99.90
12119;DHT22;6123;48.864;9.200;2022-10-16T05:25:21;15.40;99.90
12119;DHT22;6123;48.864;9.200;2022-10-16T05:27:50;15.40;99.90
12119;DHT22;6123;48.864;9.200;2022-10-16T05:30:17;15.40;99.90
12119;DHT22;6123;48.864;9.200;2022-10-16T05:32:50;15.40;99.90
12119;DHT22;6123;48.864;9.200;2022-10-16T05:35:17;15.30;99.90
12119;DHT22;6123;48.864;9.200;2022-10-16T05:37:43;15.30;99.90
12119;DHT22;6123;48.864;9.200;2022-10-16T05:40:09;15.30;99.90
12119;DHT22;6123;48.864;9.200;2022-10-16T05:42:37;15.20;99.90
12119;DHT22;6123;48.864;9.200;2022-10-16T05:45:04;15.20;99.90
12119;DHT22;6123;48.864;9.200;2022-10-16T05:47:30;15.20;99.90
12119;DHT22;6123;48.864;9.200;2022-10-16T05:49:56;15.00;99.90
12119;DHT22;6123;48.864;9.200;2022-10-16T05:52:21;15.00;99.90
12119;DHT22;6123;48.864;9.200;2022-10-16T05:54:47;14.90;99.90
12119;DHT22;6123;48.864;9.200;2022-10-16T05:57:12;14.80;99.90
12119;DHT22;6123;48.864;9.200;2022-10-16T05:59:38;14.90;99.90
12119;DHT22;6123;48.864;9.200;2022-10-16T06:02:04;14.90;99.90
12119;DHT22;6123;48.864;9.200;2022-10-16T06:04:31;14.90;99.90
12119;DHT22;6123;48.864;9.200;2022-10-16T06:07:02;14.90;99.90
12119;DHT22;6123;48.864;9.200;2022-10-16T06:09:30;14.90;99.90
12119;DHT22;6123;48.864;9.200;2022-10-16T06:11:58;15.00;99.90
12119;DHT22;6123;48.864;9.200;2022-10-16T06:14:23;15.00;99.90
12119;DHT22;6123;48.864;9.200;2022-10-16T06:16:49;15.00;99.90
12119;DHT22;6123;48.864;9.200;2022-10-16T06:19:15;15.00;99.90
12119;DHT22;6123;48.864;9.200;2022-10-16T06:21:41;14.90;99.90
12119;DHT22;6123;48.864;9.200;2022-10-16T06:24:08;14.90;99.90
12119;DHT22;6123;48.864;9.200;2022-10-16T06:26:37;14.90;99.90
12119;DHT22;6123;48.864;9.200;2022-10-16T06:29:02;14.80;99.90
12119;DHT22;6123;48.864;9.200;2022-10-16T06:31:28;14.90;99.90
12119;DHT22;6123;48.864;9.200;2022-10-16T06:33:56;14.90;99.90
12119;DHT22;6123;48.864;9.200;2022-10-16T06:36:23;14.90;99.90
12119;DHT22;6123;48.864;9.200;2022-10-16T06:38:49;15.10;99.90
12119;DHT22;6123;48.864;9.200;2022-10-16T06:41:17;15.10;99.90
12119;DHT22;6123;48.864;9.200;2022-10-16T06:43:43;15.00;99.90
12119;DHT22;6123;48.864;9.200;2022-10-16T06:46:14;15.20;99.90
12119;DHT22;6123;48.864;9.200;2022-10-16T06:48:39;15.10;99.90
12119;DHT22;6123;48.864;9.200;2022-10-16T06:51:11;15.20;99.90
12119;DHT22;6123;48.864;9.200;2022-10-16T06:53:41;15.50;99.90
12119;DHT22;6123;48.864;9.200;2022-10-16T06:58:33;15.60;99.90
12119;DHT22;6123;48.864;9.200;2022-10-16T07:00:59;15.60;99.90
12119;DHT22;6123;48.864;9.200;2022-10-16T07:03:25;15.80;99.90
12119;DHT22;6123;48.864;9.200;2022-10-16T07:05:52;15.70;99.90
12119;DHT22;6123;48.864;9.200;2022-10-16T07:08:18;15.60;99.90
12119;DHT22;6123;48.864;9.200;2022-10-16T07:10:44;15.60;99.90
12119;DHT22;6123;48.864;9.200;2022-10-16T07:13:09;15.70;99.90
12119;DHT22;6123;48.864;9.200;2022-10-16T07:15:38;15.70;99.90
12119;DHT22;6123;48.864;9.200;2022-10-16T07:18:04;15.60;99.90
12119;DHT22;6123;48.864;9.200;2022-10-16T07:20:32;15.70;99.90
12119;DHT22;6123;48.864;9.200;2022-10-16T07:22:57;15.70;99.90
12119;DHT22;6123;48.864;9.200;2022-10-16T07:25:23;15.70;99.90
12119;DHT22;6123;48.864;9.200;2022-10-16T07:27:48;15.70;99.90
12119;DHT22;6123;48.864;9.200;2022-10-16T07:30:14;15.70;99.90
12119;DHT22;6123;48.864;9.200;2022-10-16T07:32:40;15.80;99.90
12119;DHT22;6123;48.864;9.200;2022-10-16T07:35:06;15.80;99.90
12119;DHT22;6123;48.864;9.200;2022-10-16T07:37:32;15.70;99.90
12119;DHT22;6123;48.864;9.200;2022-10-16T07:39:57;15.60;99.90
12119;DHT22;6123;48.864;9.200;2022-10-16T07:42:27;15.60;99.90
12119;DHT22;6123;48.864;9.200;2022-10-16T07:44:52;15.60;99.90
12119;DHT22;6123;48.864;9.200;2022-10-16T07:47:18;15.60;99.90
12119;DHT22;6123;48.864;9.200;2022-10-16T07:49:43;15.70;99.90
12119;DHT22;6123;48.864;9.200;2022-10-16T07:52:11;15.70;99.90
12119;DHT22;6123;48.864;9.200;2022-10-16T07:54:37;15.80;99.90
12119;DHT22;6123;48.864;9.200;2022-10-16T07:57:02;15.80;99.90
12119;DHT22;6123;48.864;9.200;2022-10-16T07:59:28;15.90;99.90
12119;DHT22;6123;48.864;9.200;2022-10-16T08:01:54;16.10;99.90
12119;DHT22;6123;48.864;9.200;2022-10-16T08:04:19;16.00;99.90
12119;DHT22;6123;48.864;9.200;2022-10-16T08:06:45;16.10;99.90
12119;DHT22;6123;48.864;9.200;2022-10-16T08:09:10;16.20;99.90
12119;DHT22;6123;48.864;9.200;2022-10-16T08:11:36;16.30;99.90
12119;DHT22;6123;48.864;9.200;2022-10-16T08:14:02;16.50;99.90
12119;DHT22;6123;48.864;9.200;2022-10-16T08:16:28;16.60;99.90
12119;DHT22;6123;48.864;9.200;2022-10-16T08:18:53;16.70;99.90
12119;DHT22;6123;48.864;9.200;2022-10-16T08:21:21;16.80;99.90
12119;DHT22;6123;48.864;9.200;2022-10-16T08:23:49;16.90;99.90
12119;DHT22;6123;48.864;9.200;2022-10-16T08:26:15;17.00;99.90
12119;DHT22;6123;48.864;9.200;2022-10-16T08:28:40;17.30;99.90
12119;DHT22;6123;48.864;9.200;2022-10-16T08:31:07;17.50;99.90
12119;DHT22;6123;48.864;9.200;2022-10-16T08:33:33;17.70;99.90
12119;DHT22;6123;48.864;9.200;2022-10-16T08:36:02;17.80;99.90
12119;DHT22;6123;48.864;9.200;2022-10-16T08:38:28;17.90;99.90
12119;DHT22;6123;48.864;9.200;2022-10-16T08:40:59;17.90;99.90
12119;DHT22;6123;48.864;9.200;2022-10-16T08:48:50;18.10;99.90
12119;DHT22;6123;48.864;9.200;2022-10-16T08:51:28;18.10;99.90
12119;DHT22;6123;48.864;9.200;2022-10-16T08:53:57;18.20;99.90
12119;DHT22;6123;48.864;9.200;2022-10-16T08:56:24;18.30;99.90
12119;DHT22;6123;48.864;9.200;2022-10-16T08:58:51;18.30;99.90
12119;DHT22;6123;48.864;9.200;2022-10-16T09:01:19;18.30;99.90
12119;DHT22;6123;48.864;9.200;2022-10-16T09:15:12;18.30;99.90
12119;DHT22;6123;48.864;9.200;2022-10-16T09:25:32;18.70;99.90
12119;DHT22;6123;48.864;9.200;2022-10-16T09:27:57;18.90;99.90
12119;DHT22;6123;48.864;9.200;2022-10-16T09:30:29;19.10;99.90
12119;DHT22;6123;48.864;9.200;2022-10-16T09:32:55;19.20;99.90
12119;DHT22;6123;48.864;9.200;2022-10-16T09:35:31;19.40;99.90
12119;DHT22;6123;48.864;9.200;2022-10-16T09:37:57;19.50;99.90
12119;DHT22;6123;48.864;9.200;2022-10-16T09:40:30;19.50;99.90
12119;DHT22;6123;48.864;9.200;2022-10-16T09:45:55;19.50;99.90
12119;DHT22;6123;48.864;9.200;2022-10-16T09:48:24;19.50;99.90
12119;DHT22;6123;48.864;9.200;2022-10-16T09:50:58;19.50;99.90
12119;DHT22;6123;48.864;9.200;2022-10-16T09:53:35;19.40;99.90
12119;DHT22;6123;48.864;9.200;2022-10-16T09:56:02;19.50;99.90
12119;DHT22;6123;48.864;9.200;2022-10-16T09:58:31;19.50;99.90
12119;DHT22;6123;48.864;9.200;2022-10-16T10:00:58;19.80;99.90
12119;DHT22;6123;48.864;9.200;2022-10-16T10:03:42;20.10;99.90
12119;DHT22;6123;48.864;9.200;2022-10-16T10:08:56;20.80;99.90
12119;DHT22;6123;48.864;9.200;2022-10-16T10:11:48;20.70;99.90
12119;DHT22;6123;48.864;9.200;2022-10-16T10:14:38;20.70;99.90
12119;DHT22;6123;48.864;9.200;2022-10-16T10:36:08;21.70;99.90
12119;DHT22;6123;48.864;9.200;2022-10-16T10:47:16;22.10;99.90
12119;DHT22;6123;48.864;9.200;2022-10-16T11:00:57;23.80;99.90
12119;DHT22;6123;48.864;9.200;2022-10-16T11:06:33;24.10;99.90
12119;DHT22;6123;48.864;9.200;2022-10-16T11:09:19;23.90;99.90
12119;DHT22;6123;48.864;9.200;2022-10-16T11:17:08;24.10;99.90
12119;DHT22;6123;48.864;9.200;2022-10-16T11:19:51;24.30;99.90
12119;DHT22;6123;48.864;9.200;2022-10-16T11:22:36;24.40;99.90
12119;DHT22;6123;48.864;9.200;2022-10-16T11:25:15;24.50;99.90
12119;DHT22;6123;48.864;9.200;2022-10-16T11:27:47;24.50;99.90
12119;DHT22;6123;48.864;9.200;2022-10-16T11:30:21;24.50;99.90
12119;DHT22;6123;48.864;9.200;2022-10-16T11:35:49;24.30;99.90
12119;DHT22;6123;48.864;9.200;2022-10-16T11:47:19;25.10;99.90
12119;DHT22;6123;48.864;9.200;2022-10-16T11:50:17;25.20;99.90
12119;DHT22;6123;48.864;9.200;2022-10-16T11:52:43;24.70;99.90
12119;DHT22;6123;48.864;9.200;2022-10-16T11:55:17;24.80;99.90
12119;DHT22;6123;48.864;9.200;2022-10-16T11:57:59;24.60;99.90
12119;DHT22;6123;48.864;9.200;2022-10-16T12:00:58;23.90;99.90
12119;DHT22;6123;48.864;9.200;2022-10-16T12:08:46;25.20;99.90
12119;DHT22;6123;48.864;9.200;2022-10-16T12:11:35;24.50;99.90
12119;DHT22;6123;48.864;9.200;2022-10-16T12:19:20;25.10;99.90
12119;DHT22;6123;48.864;9.200;2022-10-16T12:21:46;25.40;99.90
12119;DHT22;6123;48.864;9.200;2022-10-16T12:24:41;25.70;99.90
12119;DHT22;6123;48.864;9.200;2022-10-16T12:27:40;25.60;99.90
12119;DHT22;6123;48.864;9.200;2022-10-16T12:30:22;24.50;99.90
12119;DHT22;6123;48.864;9.200;2022-10-16T12:33:21;24.80;99.90
12119;DHT22;6123;48.864;9.200;2022-10-16T12:35:44;24.80;99.90
12119;DHT22;6123;48.864;9.200;2022-10-16T12:38:25;25.10;99.90
12119;DHT22;6123;48.864;9.200;2022-10-16T12:41:00;25.60;99.90
12119;DHT22;6123;48.864;9.200;2022-10-16T12:46:26;25.50;99.90
12119;DHT22;6123;48.864;9.200;2022-10-16T12:51:40;26.30;99.90
12119;DHT22;6123;48.864;9.200;2022-10-16T12:54:18;25.60;99.90
12119;DHT22;6123;48.864;9.200;2022-10-16T12:59:58;26.10;99.90
12119;DHT22;6123;48.864;9.200;2022-10-16T13:14:24;26.00;99.90
12119;DHT22;6123;48.864;9.200;2022-10-16T13:24:53;27.00;99.90
12119;DHT22;6123;48.864;9.200;2022-10-16T13:27:50;26.70;99.90
12119;DHT22;6123;48.864;9.200;2022-10-16T13:32:50;26.40;99.90
12119;DHT22;6123;48.864;9.200;2022-10-16T13:35:23;26.00;99.90
12119;DHT22;6123;48.864;9.200;2022-10-16T13:37:49;26.00;99.90
12119;DHT22;6123;48.864;9.200;2022-10-16T13:42:49;25.80;99.90
12119;DHT22;6123;48.864;9.200;2022-10-16T13:45:23;25.50;99.90
12119;DHT22;6123;48.864;9.200;2022-10-16T13:48:04;25.40;99.90
12119;DHT22;6123;48.864;9.200;2022-10-16T13:50:30;25.40;99.90
12119;DHT22;6123;48.864;9.200;2022-10-16T13:53:07;25.20;99.90
12119;DHT22;6123;48.864;9.200;2022-10-16T13:55:37;25.20;99.90
12119;DHT22;6123;48.864;9.200;2022-10-16T13:58:08;25.40;99.90
12119;DHT22;6123;48.864;9.200;2022-10-16T14:00:34;25.60;99.90
12119;DHT22;6123;48.864;9.200;2022-10-16T14:03:07;25.50;99.90
12119;DHT22;6123;48.864;9.200;2022-10-16T14:05:35;25.20;99.90
12119;DHT22;6123;48.864;9.200;2022-10-16T14:08:03;25.00;99.90
12119;DHT22;6123;48.864;9.200;2022-10-16T14:10:32;24.80;99.90
12119;DHT22;6123;48.864;9.200;2022-10-16T14:13:00;24.70;99.90
12119;DHT22;6123;48.864;9.200;2022-10-16T14:15:26;24.80;99.90
12119;DHT22;6123;48.864;9.200;2022-10-16T14:17:53;24.60;99.90
12119;DHT22;6123;48.864;9.200;2022-10-16T14:20:28;24.50;99.90
12119;DHT22;6123;48.864;9.200;2022-10-16T14:23:00;24.50;99.90
12119;DHT22;6123;48.864;9.200;2022-10-16T14:25:31;24.50;99.90
12119;DHT22;6123;48.864;9.200;2022-10-16T14:27:58;24.40;99.90
12119;DHT22;6123;48.864;9.200;2022-10-16T14:30:28;24.30;99.90
12119;DHT22;6123;48.864;9.200;2022-10-16T14:32:59;24.20;99.90
12119;DHT22;6123;48.864;9.200;2022-10-16T14:35:33;24.00;99.90
12119;DHT22;6123;48.864;9.200;2022-10-16T14:38:01;23.90;99.90
12119;DHT22;6123;48.864;9.200;2022-10-16T14:40:35;23.90;99.90
12119;DHT22;6123;48.864;9.200;2022-10-16T14:43:02;23.90;99.90
12119;DHT22;6123;48.864;9.200;2022-10-16T14:45:32;23.80;99.90
12119;DHT22;6123;48.864;9.200;2022-10-16T14:48:01;23.90;99.90
12119;DHT22;6123;48.864;9.200;2022-10-16T14:50:29;23.90;99.90
12119;DHT22;6123;48.864;9.200;2022-10-16T14:52:55;24.00;99.90
12119;DHT22;6123;48.864;9.200;2022-10-16T14:55:21;24.10;99.90
12119;DHT22;6123;48.864;9.200;2022-10-16T14:57:47;23.90;99.90
12119;DHT22;6123;48.864;9.200;2022-10-16T15:00:22;23.90;99.90
12119;DHT22;6123;48.864;9.200;2022-10-16T15:02:49;23.90;99.90
12119;DHT22;6123;48.864;9.200;2022-10-16T15:05:19;24.30;99.90
12119;DHT22;6123;48.864;9.200;2022-10-16T15:07:46;24.20;99.90
12119;DHT22;6123;48.864;9.200;2022-10-16T15:10:12;24.50;99.90
12119;DHT22;6123;48.864;9.200;2022-10-16T15:12:39;25.00;99.90
12119;DHT22;6123;48.864;9.200;2022-10-16T15:17:56;26.10;99.90
12119;DHT22;6123;48.864;9.200;2022-10-16T15:20:30;25.70;99.90
12119;DHT22;6123;48.864;9.200;2022-10-16T15:22:59;25.10;99.90
12119;DHT22;6123;48.864;9.200;2022-10-16T15:25:35;24.40;99.90
12119;DHT22;6123;48.864;9.200;2022-10-16T15:28:05;24.40;99.90
12119;DHT22;6123;48.864;9.200;2022-10-16T15:30:32;24.60;99.90
12119;DHT22;6123;48.864;9.200;2022-10-16T15:32:58;24.80;99.90
12119;DHT22;6123;48.864;9.200;2022-10-16T15:35:23;25.10;99.90
12119;DHT22;6123;48.864;9.200;2022-10-16T15:37:49;25.20;99.90
12119;DHT22;6123;48.864;9.200;2022-10-16T15:40:16;24.70;99.90
12119;DHT22;6123;48.864;9.200;2022-10-16T15:42:43;24.90;99.90
12119;DHT22;6123;48.864;9.200;2022-10-16T15:45:09;24.60;99.90
12119;DHT22;6123;48.864;9.200;2022-10-16T15:47:35;24.30;99.90
12119;DHT22;6123;48.864;9.200;2022-10-16T15:50:04;23.80;99.90
12119;DHT22;6123;48.864;9.200;2022-10-16T15:52:32;23.60;99.90
12119;DHT22;6123;48.864;9.200;2022-10-16T15:54:59;23.60;99.90
12119;DHT22;6123;48.864;9.200;2022-10-16T15:57:25;23.40;99.90
12119;DHT22;6123;48.864;9.200;2022-10-16T15:59:52;23.40;99.90
12119;DHT22;6123;48.864;9.200;2022-10-16T16:02:18;23.20;99.90
12119;DHT22;6123;48.864;9.200;2022-10-16T16:04:44;22.90;99.90
12119;DHT22;6123;48.864;9.200;2022-10-16T16:07:09;22.90;99.90
12119;DHT22;6123;48.864;9.200;2022-10-16T16:09:37;22.80;99.90
12119;DHT22;6123;48.864;9.200;2022-10-16T16:12:03;22.80;99.90
12119;DHT22;6123;48.864;9.200;2022-10-16T16:14:31;22.60;99.90
12119;DHT22;6123;48.864;9.200;2022-10-16T16:16:57;22.50;99.90
12119;DHT22;6123;48.864;9.200;2022-10-16T16:19:23;22.40;99.90
12119;DHT22;6123;48.864;9.200;2022-10-16T16:21:49;22.30;99.90
12119;DHT22;6123;48.864;9.200;2022-10-16T16:24:17;22.30;99.90
12119;DHT22;6123;48.864;9.200;2022-10-16T16:26:43;22.30;99.90
12119;DHT22;6123;48.864;9.200;2022-10-16T16:29:11;22.10;99.90
12119;DHT22;6123;48.864;9.200;2022-10-16T16:31:39;21.90;99.90
12119;DHT22;6123;48.864;9.200;2022-10-16T16:34:07;21.90;99.90
12119;DHT22;6123;48.864;9.200;2022-10-16T16:36:33;21.60;99.90
12119;DHT22;6123;48.864;9.200;2022-10-16T16:38:59;21.60;99.90
12119;DHT22;6123;48.864;9.200;2022-10-16T16:41:29;21.40;99.90
12119;DHT22;6123;48.864;9.200;2022-10-16T16:44:01;21.20;99.90
12119;DHT22;6123;48.864;9.200;2022-10-16T16:46:27;21.00;99.90
12119;DHT22;6123;48.864;9.200;2022-10-16T16:48:52;20.90;99.90
12119;DHT22;6123;48.864;9.200;2022-10-16T16:51:21;20.80;99.90
12119;DHT22;6123;48.864;9.200;2022-10-16T16:53:48;20.70;99.90
12119;DHT22;6123;48.864;9.200;2022-10-16T16:56:15;20.70;99.90
12119;DHT22;6123;48.864;9.200;2022-10-16T16:58:41;20.70;99.90
12119;DHT22;6123;48.864;9.200;2022-10-16T17:01:09;20.60;99.90
12119;DHT22;6123;48.864;9.200;2022-10-16T17:03:35;20.60;99.90
12119;DHT22;6123;48.864;9.200;2022-10-16T17:06:05;20.60;99.90
12119;DHT22;6123;48.864;9.200;2022-10-16T17:08:31;20.50;99.90
12119;DHT22;6123;48.864;9.200;2022-10-16T17:10:57;20.50;99.90
12119;DHT22;6123;48.864;9.200;2022-10-16T17:13:28;20.50;99.90
12119;DHT22;6123;48.864;9.200;2022-10-16T17:15:54;20.40;99.90
12119;DHT22;6123;48.864;9.200;2022-10-16T17:18:23;20.30;99.90
12119;DHT22;6123;48.864;9.200;2022-10-16T17:20:50;20.20;99.90
12119;DHT22;6123;48.864;9.200;2022-10-16T17:23:18;20.10;99.90
12119;DHT22;6123;48.864;9.200;2022-10-16T17:25:44;20.10;99.90
12119;DHT22;6123;48.864;9.200;2022-10-16T17:28:11;20.00;99.90
12119;DHT22;6123;48.864;9.200;2022-10-16T17:30:38;20.00;99.90
12119;DHT22;6123;48.864;9.200;2022-10-16T17:33:05;19.90;99.90
12119;DHT22;6123;48.864;9.200;2022-10-16T17:35:44;19.80;99.90
12119;DHT22;6123;48.864;9.200;2022-10-16T17:38:11;19.90;99.90
12119;DHT22;6123;48.864;9.200;2022-10-16T17:40:38;19.80;99.90
12119;DHT22;6123;48.864;9.200;2022-10-16T17:43:06;19.70;99.90
12119;DHT22;6123;48.864;9.200;2022-10-16T17:45:36;19.60;99.90
12119;DHT22;6123;48.864;9.200;2022-10-16T17:48:04;19.60;99.90
12119;DHT22;6123;48.864;9.200;2022-10-16T17:50:30;20.20;99.90
12119;DHT22;6123;48.864;9.200;2022-10-16T17:52:56;19.50;99.90
12119;DHT22;6123;48.864;9.200;2022-10-16T17:55:21;19.40;99.90
12119;DHT22;6123;48.864;9.200;2022-10-16T17:57:47;19.30;99.90
12119;DHT22;6123;48.864;9.200;2022-10-16T18:00:20;19.10;99.90
12119;DHT22;6123;48.864;9.200;2022-10-16T18:02:48;19.10;99.90
12119;DHT22;6123;48.864;9.200;2022-10-16T18:05:14;18.90;99.90
12119;DHT22;6123;48.864;9.200;2022-10-16T18:07:40;18.90;99.90
12119;DHT22;6123;48.864;9.200;2022-10-16T18:10:08;18.90;99.90
12119;DHT22;6123;48.864;9.200;2022-10-16T18:12:35;18.90;99.90
12119;DHT22;6123;48.864;9.200;2022-10-16T18:15:01;18.80;99.90
12119;DHT22;6123;48.864;9.200;2022-10-16T18:17:27;18.80;99.90
12119;DHT22;6123;48.864;9.200;2022-10-16T18:19:54;18.80;99.90
12119;DHT22;6123;48.864;9.200;2022-10-16T18:22:19;18.70;99.90
12119;DHT22;6123;48.864;9.200;2022-10-16T18:24:45;18.70;99.90
12119;DHT22;6123;48.864;9.200;2022-10-16T18:27:11;18.60;99.90
12119;DHT22;6123;48.864;9.200;2022-10-16T18:29:36;18.50;99.90
12119;DHT22;6123;48.864;9.200;2022-10-16T18:32:04;18.40;99.90